METAR Data
IDs: Format: Raw Decoded Include TAF

Data at: 0000 UTC 25 Apr 2019

PADM 242302Z AUTO 35006KT 10SM FEW042 02/M08 A3018 RMK AO2 SLP228 T00171083 FZRANO
PADM 242202Z AUTO VRB04KT 10SM CLR 01/M08 A3018 RMK AO2 SLP227 T00111083 FZRANO
PADM 242102Z AUTO 07008KT 10SM CLR 01/M08 A3017 RMK AO2 SLP225 60001 T00061083 53009 FZRANO
PADM 242002Z AUTO 03006KT 10SM CLR M01/M08 A3016 RMK AO2 SLP224 T10061078 FZRANO
PADM 241902Z AUTO 09003KT 10SM CLR M01/M08 A3015 RMK AO2 SLP219 P0001 T10111083 FZRANO
PADM 241802Z AUTO 06006KT 10SM CLR M04/M08 A3015 RMK AO2 SLP217 T10441083 11039 21111 53014 FZRANO
PADM 241702Z AUTO 07005KT 10SM CLR M08/M11 A3014 RMK AO2 SLP214 T10831111 FZRANO
PADM 241602Z AUTO 08006KT 10SM CLR M10/M12 A3012 RMK AO2 SLP210 T11001117 FZRANO
PADM 241502Z AUTO 08005KT 10SM BKN049 M11/M13 A3011 RMK AO2 SLP204 T11061128 51013 FZRANO
PADM 241402Z AUTO 08009KT 10SM OVC049 M08/M10 A3010 RMK AO2 SLP200 T10781100 FZRANO
PADM 241302Z AUTO 07009KT 10SM OVC045 M04/M07 A3009 RMK AO2 SLP197 T10441072 FZRANO
PADM 241202Z AUTO 06007KT 10SM OVC045 M04/M07 A3007 RMK AO2 SLP193 60000 T10391067 11022 21039 51018 FZRANO
PADM 241102Z AUTO 07007KT 10SM OVC043 M04/M07 A3006 RMK AO2 SLP188 T10391067 FZRANO
PADM 241002Z AUTO 06006KT 10SM OVC045 M03/M07 A3005 RMK AO2 SLP183 T10331067 FZRANO
PADM 240902Z AUTO 09007KT 10SM OVC043 M04/M07 A3002 RMK AO2 SLP175 60000 T10391067 53017 FZRANO
PADM 240802Z AUTO 08004KT 10SM OVC041 M03/M07 A3001 RMK AO2 SLP169 T10331067 410331033 FZRANO
PADM 240702Z AUTO 13008KT 10SM OVC043 M03/M06 A2999 RMK AO2 SNE0636 SLP163 P0000 T10281061 FZRANO
PADM 240602Z AUTO 11005KT 9SM -SN OVC037 M02/M06 A2997 RMK AO2 SLP157 P0000 60000 T10221061 11011 21022 51017 FZRANO
PADM 240502Z AUTO 16004KT 10SM -SN OVC037 M02/M06 A2995 RMK AO2 UPB0446E0459SNB0411E0446B01 SLP152 P0000 T10171061 FZRANO
PADM 240402Z AUTO 17006KT 10SM OVC039 M02/M07 A2994 RMK AO2 SLP147 T10171067 FZRANO
PADM 240302Z AUTO 15004KT 10SM OVC039 M01/M07 A2992 RMK AO2 UPB0204E0220SNE0204 SLP141 P0000 60000 T10111072 53008 FZRANO
PADM 240202Z AUTO 14003KT 9SM -SN OVC033 M02/M07 A2990 RMK AO2 UPB0103E0152SNB0106E0116B0152 SLP134 P0000 T10171072 FZRANO
PADM 240102Z AUTO 17003KT 10SM OVC031 M02/M08 A2990 RMK AO2 SNE0003 SLP132 T10171078 FZRANO
PADM 240002Z AUTO 15007KT 9SM -SN OVC031 M02/M08 A2988 RMK AO2 SLP126 P0000 60000 T10221078 11022 21050 51018 FZRANO
PADM 240000Z AUTO 15008KT 9SM -SN OVC031 M02/M08 A2988 RMK AO2 P0000 FZRANO
PADM 232302Z AUTO 18006KT 9SM -SN OVC027 M03/M07 A2987 RMK AO2 SLP122 P0000 T10281072 FZRANO
PADM 232202Z AUTO 15007KT 9SM -SN OVC025 M03/M08 A2985 RMK AO2 SNB2115 SLP117 P0000 T10331078 FZRANO
PADM 232102Z AUTO 17009KT 10SM OVC027 M03/M08 A2984 RMK AO2 SNE2033 SLP112 P0000 60000 T10331083 51013 FZRANO
PADM 232002Z AUTO 15007KT 9SM -SN BKN017 OVC024 M04/M08 A2981 RMK AO2 SNB19181927 SLP105 P0000 T10391078 FZRANO
PADM 231912Z AUTO 15006KT 9SM -SN SCT011 OVC024 M05/M08 A2980 RMK AO2 SNB1827 P0000 FZRANO
PADM 231902Z AUTO 17007KT 9SM -SN BKN011 OVC024 M05/M08 A2979 RMK AO2 SNB1827 P0000 FZRANO
PADM 231802Z AUTO 18008KT 10SM OVC022 M06/M08 A2978 RMK AO2 SLP092 T10561078 11056 21072 53013 FZRANO
PADM 231702Z AUTO 18005KT 10SM OVC022 M06/M08 A2976 RMK AO2 SLP086 T10611083 FZRANO
PADM 231602Z AUTO 15008KT 10SM OVC022 M07/M08 A2974 RMK AO2 SLP081 T10671083 FZRANO
PADM 231502Z AUTO 18006KT 10SM OVC024 M07/M09 A2973 RMK AO2 SLP076 T10721089 53015 FZRANO
PADM 231402Z AUTO 19007KT 10SM OVC022 M07/M09 A2972 RMK AO2 SLP074 T10671089 FZRANO
PADM 231302Z AUTO 18004KT 10SM OVC018 M07/M09 A2971 RMK AO2 SLP068 T10671089 FZRANO
PADM 231202Z AUTO 19005KT 10SM OVC018 M06/M08 A2969 RMK AO2 SLP063 60000 T10611083 11044 21061 53013 FZRANO